sensor_id;sensor_type;location;lat;lon;timestamp;pressure;altitude;pressure_sealevel;temperature;humidity
9935;BME280;5006;41.828;23.478;2022-08-01T00:00:10;90297.03;;;19.70;71.90
9935;BME280;5006;41.828;23.478;2022-08-01T00:01:15;90290.88;;;19.78;71.52
9935;BME280;5006;41.828;23.478;2022-08-01T00:02:20;90296.44;;;19.74;71.56
9935;BME280;5006;41.828;23.478;2022-08-01T00:03:26;90292.13;;;19.65;72.01
9935;BME280;5006;41.828;23.478;2022-08-01T00:04:31;90295.31;;;19.29;73.18
9935;BME280;5006;41.828;23.478;2022-08-01T00:05:37;90295.19;;;19.33;73.49
9935;BME280;5006;41.828;23.478;2022-08-01T00:06:41;90299.66;;;19.27;74.17
9935;BME280;5006;41.828;23.478;2022-08-01T00:07:47;90290.59;;;19.42;73.64
9935;BME280;5006;41.828;23.478;2022-08-01T00:08:52;90293.53;;;19.69;72.84
9935;BME280;5006;41.828;23.478;2022-08-01T00:09:58;90297.97;;;19.97;72.21
9935;BME280;5006;41.828;23.478;2022-08-01T00:11:03;90296.59;;;20.14;71.37
9935;BME280;5006;41.828;23.478;2022-08-01T00:12:09;90294.66;;;20.75;69.93
9935;BME280;5006;41.828;23.478;2022-08-01T00:13:14;90297.63;;;20.68;69.90
9935;BME280;5006;41.828;23.478;2022-08-01T00:14:20;90296.66;;;20.53;70.35
9935;BME280;5006;41.828;23.478;2022-08-01T00:15:26;90290.66;;;20.58;69.84
9935;BME280;5006;41.828;23.478;2022-08-01T00:16:31;90287.22;;;20.15;70.89
9935;BME280;5006;41.828;23.478;2022-08-01T00:17:37;90294.19;;;19.94;71.85
9935;BME280;5006;41.828;23.478;2022-08-01T00:18:42;90294.50;;;19.96;72.00
9935;BME280;5006;41.828;23.478;2022-08-01T00:19:48;90282.59;;;19.81;72.86
9935;BME280;5006;41.828;23.478;2022-08-01T00:20:52;90293.38;;;20.06;73.08
9935;BME280;5006;41.828;23.478;2022-08-01T00:21:58;90289.06;;;20.48;70.99
9935;BME280;5006;41.828;23.478;2022-08-01T00:23:04;90281.41;;;19.82;72.08
9935;BME280;5006;41.828;23.478;2022-08-01T00:24:09;90286.94;;;20.00;72.26
9935;BME280;5006;41.828;23.478;2022-08-01T00:25:15;90286.38;;;19.84;72.73
9935;BME280;5006;41.828;23.478;2022-08-01T00:26:20;90283.09;;;19.89;72.64
9935;BME280;5006;41.828;23.478;2022-08-01T00:27:26;90285.47;;;19.44;73.19
9935;BME280;5006;41.828;23.478;2022-08-01T00:28:30;90286.25;;;19.32;72.86
9935;BME280;5006;41.828;23.478;2022-08-01T00:29:37;90283.91;;;19.22;73.71
9935;BME280;5006;41.828;23.478;2022-08-01T00:30:44;90280.28;;;19.37;70.87
9935;BME280;5006;41.828;23.478;2022-08-01T00:31:49;90289.69;;;19.45;70.69
9935;BME280;5006;41.828;23.478;2022-08-01T00:32:55;90280.69;;;19.36;70.49
9935;BME280;5006;41.828;23.478;2022-08-01T00:33:59;90284.25;;;19.45;69.44
9935;BME280;5006;41.828;23.478;2022-08-01T00:35:05;90285.84;;;19.21;70.58
9935;BME280;5006;41.828;23.478;2022-08-01T00:36:10;90277.38;;;19.07;70.46
9935;BME280;5006;41.828;23.478;2022-08-01T00:37:16;90276.53;;;18.97;70.87
9935;BME280;5006;41.828;23.478;2022-08-01T00:38:21;90282.09;;;18.94;71.46
9935;BME280;5006;41.828;23.478;2022-08-01T00:39:27;90279.00;;;19.17;71.20
9935;BME280;5006;41.828;23.478;2022-08-01T00:40:31;90276.63;;;19.19;70.99
9935;BME280;5006;41.828;23.478;2022-08-01T00:41:38;90276.72;;;19.15;71.37
9935;BME280;5006;41.828;23.478;2022-08-01T00:42:42;90272.22;;;19.34;71.13
9935;BME280;5006;41.828;23.478;2022-08-01T00:43:48;90277.88;;;19.39;70.24
9935;BME280;5006;41.828;23.478;2022-08-01T00:44:54;90272.75;;;19.41;70.00
9935;BME280;5006;41.828;23.478;2022-08-01T00:46:00;90272.84;;;19.50;70.06
9935;BME280;5006;41.828;23.478;2022-08-01T00:47:05;90275.38;;;19.32;70.88
9935;BME280;5006;41.828;23.478;2022-08-01T00:48:11;90277.66;;;19.34;70.54
9935;BME280;5006;41.828;23.478;2022-08-01T00:49:16;90276.69;;;19.28;71.03
9935;BME280;5006;41.828;23.478;2022-08-01T00:50:22;90283.28;;;19.18;71.38
9935;BME280;5006;41.828;23.478;2022-08-01T00:51:27;90277.47;;;19.28;72.08
9935;BME280;5006;41.828;23.478;2022-08-01T00:52:34;90270.81;;;19.29;71.72
9935;BME280;5006;41.828;23.478;2022-08-01T00:53:39;90272.88;;;19.59;70.55
9935;BME280;5006;41.828;23.478;2022-08-01T00:54:45;90269.97;;;19.54;70.33
9935;BME280;5006;41.828;23.478;2022-08-01T00:55:50;90280.13;;;19.41;70.56
9935;BME280;5006;41.828;23.478;2022-08-01T00:56:57;90270.91;;;19.38;71.40
9935;BME280;5006;41.828;23.478;2022-08-01T00:58:02;90273.63;;;19.38;71.72
9935;BME280;5006;41.828;23.478;2022-08-01T00:59:09;90268.59;;;19.49;71.31
9935;BME280;5006;41.828;23.478;2022-08-01T01:00:15;90268.88;;;19.30;71.11
9935;BME280;5006;41.828;23.478;2022-08-01T01:01:21;90278.03;;;19.23;71.49
9935;BME280;5006;41.828;23.478;2022-08-01T01:02:27;90276.47;;;19.35;70.92
9935;BME280;5006;41.828;23.478;2022-08-01T01:03:32;90266.91;;;19.30;71.48
9935;BME280;5006;41.828;23.478;2022-08-01T01:04:38;90264.22;;;19.18;72.19
9935;BME280;5006;41.828;23.478;2022-08-01T01:05:48;90263.44;;;19.30;72.07
9935;BME280;5006;41.828;23.478;2022-08-01T01:07:02;90265.19;;;19.24;71.81
9935;BME280;5006;41.828;23.478;2022-08-01T01:08:14;90264.97;;;19.52;70.85
9935;BME280;5006;41.828;23.478;2022-08-01T01:09:32;90264.28;;;19.27;71.87
9935;BME280;5006;41.828;23.478;2022-08-01T01:10:43;90275.63;;;19.25;71.98
9935;BME280;5006;41.828;23.478;2022-08-01T01:12:00;90265.06;;;19.15;72.12
9935;BME280;5006;41.828;23.478;2022-08-01T01:13:11;90261.66;;;19.36;71.66
9935;BME280;5006;41.828;23.478;2022-08-01T01:14:25;90269.31;;;19.28;71.99
9935;BME280;5006;41.828;23.478;2022-08-01T01:15:41;90264.78;;;19.47;71.30
9935;BME280;5006;41.828;23.478;2022-08-01T01:16:49;90270.09;;;19.50;71.02
9935;BME280;5006;41.828;23.478;2022-08-01T01:17:57;90267.69;;;19.31;71.49
9935;BME280;5006;41.828;23.478;2022-08-01T01:19:08;90269.63;;;19.64;70.92
9935;BME280;5006;41.828;23.478;2022-08-01T01:20:18;90263.50;;;19.39;71.57
9935;BME280;5006;41.828;23.478;2022-08-01T01:21:47;90253.72;;;19.63;70.59
9935;BME280;5006;41.828;23.478;2022-08-01T01:23:17;90259.97;;;19.72;70.31
9935;BME280;5006;41.828;23.478;2022-08-01T01:24:34;90264.41;;;19.57;70.09
9935;BME280;5006;41.828;23.478;2022-08-01T01:25:54;90256.94;;;19.49;70.13
9935;BME280;5006;41.828;23.478;2022-08-01T01:27:10;90266.78;;;19.34;70.38
9935;BME280;5006;41.828;23.478;2022-08-01T01:28:23;90256.09;;;19.39;70.91
9935;BME280;5006;41.828;23.478;2022-08-01T01:29:38;90257.53;;;18.97;71.01
9935;BME280;5006;41.828;23.478;2022-08-01T01:30:46;90260.78;;;18.92;71.32
9935;BME280;5006;41.828;23.478;2022-08-01T01:31:56;90249.47;;;18.94;71.46
9935;BME280;5006;41.828;23.478;2022-08-01T01:33:03;90258.31;;;18.85;71.29
9935;BME280;5006;41.828;23.478;2022-08-01T01:34:12;90248.28;;;18.95;71.13
9935;BME280;5006;41.828;23.478;2022-08-01T01:35:21;90254.72;;;18.76;71.86
9935;BME280;5006;41.828;23.478;2022-08-01T01:36:29;90253.56;;;18.52;72.48
9935;BME280;5006;41.828;23.478;2022-08-01T01:37:38;90246.56;;;18.26;72.77
9935;BME280;5006;41.828;23.478;2022-08-01T01:38:45;90249.94;;;18.05;74.31
9935;BME280;5006;41.828;23.478;2022-08-01T01:39:52;90248.94;;;18.24;74.22
9935;BME280;5006;41.828;23.478;2022-08-01T01:40:58;90252.13;;;18.35;73.98
9935;BME280;5006;41.828;23.478;2022-08-01T01:42:05;90250.03;;;18.01;75.29
9935;BME280;5006;41.828;23.478;2022-08-01T01:43:12;90251.56;;;18.15;75.55
9935;BME280;5006;41.828;23.478;2022-08-01T01:44:19;90245.38;;;18.27;75.18
9935;BME280;5006;41.828;23.478;2022-08-01T01:45:26;90239.63;;;18.50;74.63
9935;BME280;5006;41.828;23.478;2022-08-01T01:46:33;90245.66;;;17.91;75.50
9935;BME280;5006;41.828;23.478;2022-08-01T01:47:39;90243.66;;;17.67;76.67
9935;BME280;5006;41.828;23.478;2022-08-01T01:48:46;90238.66;;;18.31;74.96
9935;BME280;5006;41.828;23.478;2022-08-01T01:49:54;90243.97;;;18.22;75.49
9935;BME280;5006;41.828;23.478;2022-08-01T01:51:00;90246.00;;;18.06;75.96
9935;BME280;5006;41.828;23.478;2022-08-01T01:52:07;90233.34;;;18.40;74.68
9935;BME280;5006;41.828;23.478;2022-08-01T01:53:16;90246.22;;;18.24;72.91
9935;BME280;5006;41.828;23.478;2022-08-01T01:54:24;90230.28;;;18.13;72.42
9935;BME280;5006;41.828;23.478;2022-08-01T01:55:32;90240.75;;;18.40;70.68
9935;BME280;5006;41.828;23.478;2022-08-01T01:56:41;90240.19;;;18.45;71.03
9935;BME280;5006;41.828;23.478;2022-08-01T01:57:53;90240.59;;;18.68;70.31
9935;BME280;5006;41.828;23.478;2022-08-01T01:59:02;90242.63;;;18.77;69.58
9935;BME280;5006;41.828;23.478;2022-08-01T02:00:09;90243.47;;;18.99;68.50
9935;BME280;5006;41.828;23.478;2022-08-01T02:01:18;90239.53;;;18.66;69.03
9935;BME280;5006;41.828;23.478;2022-08-01T02:02:24;90233.44;;;18.62;67.69
9935;BME280;5006;41.828;23.478;2022-08-01T02:03:31;90241.13;;;18.88;68.28
9935;BME280;5006;41.828;23.478;2022-08-01T02:04:40;90242.13;;;18.57;68.99
9935;BME280;5006;41.828;23.478;2022-08-01T02:05:47;90248.97;;;18.61;69.15
9935;BME280;5006;41.828;23.478;2022-08-01T02:06:53;90244.09;;;18.69;68.81
9935;BME280;5006;41.828;23.478;2022-08-01T02:08:01;90245.72;;;18.79;65.33
9935;BME280;5006;41.828;23.478;2022-08-01T02:09:08;90248.03;;;19.02;64.25
9935;BME280;5006;41.828;23.478;2022-08-01T02:10:15;90235.38;;;19.20;63.81
9935;BME280;5006;41.828;23.478;2022-08-01T02:11:22;90242.00;;;19.32;63.41
9935;BME280;5006;41.828;23.478;2022-08-01T02:12:29;90237.00;;;19.30;65.07
9935;BME280;5006;41.828;23.478;2022-08-01T02:13:38;90237.44;;;19.29;66.78
9935;BME280;5006;41.828;23.478;2022-08-01T02:14:44;90236.63;;;19.07;66.90
9935;BME280;5006;41.828;23.478;2022-08-01T02:15:52;90235.63;;;19.13;67.12
9935;BME280;5006;41.828;23.478;2022-08-01T02:16:58;90238.94;;;18.83;67.96
9935;BME280;5006;41.828;23.478;2022-08-01T02:18:08;90234.38;;;18.93;67.21
9935;BME280;5006;41.828;23.478;2022-08-01T02:19:14;90246.25;;;18.74;68.33
9935;BME280;5006;41.828;23.478;2022-08-01T02:20:22;90241.63;;;18.96;66.57
9935;BME280;5006;41.828;23.478;2022-08-01T02:21:30;90248.22;;;18.61;65.42
9935;BME280;5006;41.828;23.478;2022-08-01T02:22:40;90244.81;;;18.82;63.98
9935;BME280;5006;41.828;23.478;2022-08-01T02:23:47;90248.06;;;18.89;63.61
9935;BME280;5006;41.828;23.478;2022-08-01T02:24:56;90243.84;;;18.76;63.00
9935;BME280;5006;41.828;23.478;2022-08-01T02:26:07;90234.53;;;18.64;63.24
9935;BME280;5006;41.828;23.478;2022-08-01T02:27:17;90243.94;;;18.97;63.06
9935;BME280;5006;41.828;23.478;2022-08-01T02:28:29;90244.53;;;19.26;63.10
9935;BME280;5006;41.828;23.478;2022-08-01T02:29:39;90247.06;;;18.96;64.17
9935;BME280;5006;41.828;23.478;2022-08-01T02:30:47;90235.78;;;18.85;63.90
9935;BME280;5006;41.828;23.478;2022-08-01T02:31:54;90239.97;;;18.64;65.04
9935;BME280;5006;41.828;23.478;2022-08-01T02:33:05;90240.16;;;18.70;65.90
9935;BME280;5006;41.828;23.478;2022-08-01T02:34:10;90240.69;;;18.77;65.27
9935;BME280;5006;41.828;23.478;2022-08-01T02:35:20;90240.38;;;18.63;66.32
9935;BME280;5006;41.828;23.478;2022-08-01T02:36:28;90238.56;;;18.47;65.87
9935;BME280;5006;41.828;23.478;2022-08-01T02:37:36;90236.91;;;18.50;66.03
9935;BME280;5006;41.828;23.478;2022-08-01T02:38:44;90238.44;;;18.51;66.12
9935;BME280;5006;41.828;23.478;2022-08-01T02:39:54;90236.81;;;18.28;67.31
9935;BME280;5006;41.828;23.478;2022-08-01T02:41:03;90240.50;;;18.09;69.23
9935;BME280;5006;41.828;23.478;2022-08-01T02:42:13;90236.63;;;18.35;67.41
9935;BME280;5006;41.828;23.478;2022-08-01T02:43:21;90242.47;;;18.34;67.18
9935;BME280;5006;41.828;23.478;2022-08-01T02:44:31;90238.53;;;18.10;68.15
9935;BME280;5006;41.828;23.478;2022-08-01T02:45:43;90238.75;;;18.15;68.00
9935;BME280;5006;41.828;23.478;2022-08-01T02:46:51;90227.53;;;17.88;68.64
9935;BME280;5006;41.828;23.478;2022-08-01T02:48:04;90239.44;;;17.66;70.05
9935;BME280;5006;41.828;23.478;2022-08-01T02:49:11;90241.66;;;17.27;71.47
9935;BME280;5006;41.828;23.478;2022-08-01T02:50:17;90231.41;;;17.75;70.57
9935;BME280;5006;41.828;23.478;2022-08-01T02:51:25;90236.31;;;17.80;68.96
9935;BME280;5006;41.828;23.478;2022-08-01T02:52:32;90226.09;;;17.71;69.92
9935;BME280;5006;41.828;23.478;2022-08-01T02:53:39;90234.53;;;17.61;70.29
9935;BME280;5006;41.828;23.478;2022-08-01T02:54:49;90229.00;;;17.64;70.52
9935;BME280;5006;41.828;23.478;2022-08-01T02:55:55;90230.91;;;17.39;72.49
9935;BME280;5006;41.828;23.478;2022-08-01T02:57:02;90232.59;;;17.33;71.60
9935;BME280;5006;41.828;23.478;2022-08-01T02:58:09;90236.59;;;17.57;70.06
9935;BME280;5006;41.828;23.478;2022-08-01T02:59:18;90239.06;;;17.51;69.37
9935;BME280;5006;41.828;23.478;2022-08-01T03:00:26;90237.78;;;17.56;69.87
9935;BME280;5006;41.828;23.478;2022-08-01T03:01:34;90234.81;;;17.38;69.51
9935;BME280;5006;41.828;23.478;2022-08-01T03:02:40;90233.69;;;17.64;68.16
9935;BME280;5006;41.828;23.478;2022-08-01T03:03:48;90231.16;;;17.57;69.60
9935;BME280;5006;41.828;23.478;2022-08-01T03:04:53;90238.50;;;17.44;69.77
9935;BME280;5006;41.828;23.478;2022-08-01T03:06:00;90235.25;;;17.21;70.82
9935;BME280;5006;41.828;23.478;2022-08-01T03:07:08;90235.06;;;17.28;70.21
9935;BME280;5006;41.828;23.478;2022-08-01T03:08:15;90235.63;;;17.51;70.20
9935;BME280;5006;41.828;23.478;2022-08-01T03:09:21;90234.22;;;17.31;70.42
9935;BME280;5006;41.828;23.478;2022-08-01T03:10:29;90232.84;;;17.39;71.35
9935;BME280;5006;41.828;23.478;2022-08-01T03:11:35;90233.16;;;17.12;72.17
9935;BME280;5006;41.828;23.478;2022-08-01T03:12:44;90233.63;;;17.39;71.11
9935;BME280;5006;41.828;23.478;2022-08-01T03:13:50;90227.34;;;16.98;72.09
9935;BME280;5006;41.828;23.478;2022-08-01T03:14:59;90230.66;;;17.18;69.60
9935;BME280;5006;41.828;23.478;2022-08-01T03:16:05;90228.66;;;17.50;68.76
9935;BME280;5006;41.828;23.478;2022-08-01T03:17:11;90235.06;;;17.28;70.01
9935;BME280;5006;41.828;23.478;2022-08-01T03:18:17;90236.44;;;17.36;65.15
9935;BME280;5006;41.828;23.478;2022-08-01T03:19:25;90236.09;;;17.74;60.15
9935;BME280;5006;41.828;23.478;2022-08-01T03:20:33;90238.00;;;17.61;63.10
9935;BME280;5006;41.828;23.478;2022-08-01T03:21:39;90239.59;;;17.87;63.63
9935;BME280;5006;41.828;23.478;2022-08-01T03:22:47;90234.34;;;17.80;63.56
9935;BME280;5006;41.828;23.478;2022-08-01T03:23:54;90235.09;;;17.68;62.65
9935;BME280;5006;41.828;23.478;2022-08-01T03:25:03;90236.31;;;17.92;64.03
9935;BME280;5006;41.828;23.478;2022-08-01T03:26:10;90234.59;;;17.86;62.74
9935;BME280;5006;41.828;23.478;2022-08-01T03:27:18;90228.69;;;17.75;60.24
9935;BME280;5006;41.828;23.478;2022-08-01T03:28:25;90238.81;;;17.87;60.49
9935;BME280;5006;41.828;23.478;2022-08-01T03:29:32;90244.56;;;17.76;60.53
9935;BME280;5006;41.828;23.478;2022-08-01T03:30:38;90237.03;;;18.21;58.02
9935;BME280;5006;41.828;23.478;2022-08-01T03:31:45;90233.75;;;18.14;57.48
9935;BME280;5006;41.828;23.478;2022-08-01T03:32:51;90232.69;;;18.36;57.32
9935;BME280;5006;41.828;23.478;2022-08-01T03:33:57;90232.81;;;18.33;58.28
9935;BME280;5006;41.828;23.478;2022-08-01T03:35:04;90234.72;;;18.20;59.23
9935;BME280;5006;41.828;23.478;2022-08-01T03:36:11;90237.34;;;18.36;57.96
9935;BME280;5006;41.828;23.478;2022-08-01T03:37:21;90234.22;;;18.37;59.20
9935;BME280;5006;41.828;23.478;2022-08-01T03:38:30;90227.22;;;18.24;58.36
9935;BME280;5006;41.828;23.478;2022-08-01T03:39:42;90235.31;;;18.40;57.70
9935;BME280;5006;41.828;23.478;2022-08-01T03:40:52;90232.88;;;18.17;57.65
9935;BME280;5006;41.828;23.478;2022-08-01T03:42:01;90233.44;;;18.37;59.06
9935;BME280;5006;41.828;23.478;2022-08-01T03:43:12;90230.06;;;18.58;60.75
9935;BME280;5006;41.828;23.478;2022-08-01T03:44:24;90228.00;;;18.62;61.79
9935;BME280;5006;41.828;23.478;2022-08-01T03:45:33;90233.00;;;18.51;60.53
9935;BME280;5006;41.828;23.478;2022-08-01T03:46:42;90227.91;;;18.53;60.77
9935;BME280;5006;41.828;23.478;2022-08-01T03:47:49;90228.28;;;17.76;63.09
9935;BME280;5006;41.828;23.478;2022-08-01T03:49:00;90236.00;;;17.90;58.99
9935;BME280;5006;41.828;23.478;2022-08-01T03:50:10;90234.63;;;18.23;58.93
9935;BME280;5006;41.828;23.478;2022-08-01T03:51:18;90235.84;;;18.35;60.89
9935;BME280;5006;41.828;23.478;2022-08-01T03:52:25;90234.00;;;18.32;56.80
9935;BME280;5006;41.828;23.478;2022-08-01T03:53:32;90239.63;;;18.12;61.31
9935;BME280;5006;41.828;23.478;2022-08-01T03:54:40;90233.44;;;18.24;55.20
9935;BME280;5006;41.828;23.478;2022-08-01T03:55:48;90228.84;;;18.84;57.03
9935;BME280;5006;41.828;23.478;2022-08-01T03:56:54;90234.69;;;18.95;54.50
9935;BME280;5006;41.828;23.478;2022-08-01T03:58:01;90235.91;;;18.81;54.80
9935;BME280;5006;41.828;23.478;2022-08-01T03:59:08;90234.56;;;18.52;53.50
9935;BME280;5006;41.828;23.478;2022-08-01T04:00:15;90238.13;;;18.61;53.42
9935;BME280;5006;41.828;23.478;2022-08-01T04:01:22;90247.91;;;19.18;52.64
9935;BME280;5006;41.828;23.478;2022-08-01T04:02:29;90249.38;;;18.97;52.63
9935;BME280;5006;41.828;23.478;2022-08-01T04:03:35;90240.59;;;19.15;53.24
9935;BME280;5006;41.828;23.478;2022-08-01T04:04:42;90236.38;;;19.48;53.59
9935;BME280;5006;41.828;23.478;2022-08-01T04:05:48;90240.16;;;19.16;53.81
9935;BME280;5006;41.828;23.478;2022-08-01T04:06:54;90240.47;;;19.31;53.80
9935;BME280;5006;41.828;23.478;2022-08-01T04:07:59;90249.03;;;19.42;54.44
9935;BME280;5006;41.828;23.478;2022-08-01T04:09:06;90244.53;;;19.48;55.27
9935;BME280;5006;41.828;23.478;2022-08-01T04:10:11;90248.84;;;19.58;55.23
9935;BME280;5006;41.828;23.478;2022-08-01T04:11:17;90251.56;;;19.36;55.67
9935;BME280;5006;41.828;23.478;2022-08-01T04:12:22;90245.16;;;19.52;55.74
9935;BME280;5006;41.828;23.478;2022-08-01T04:13:28;90251.50;;;19.49;56.01
9935;BME280;5006;41.828;23.478;2022-08-01T04:14:32;90257.97;;;19.64;56.01
9935;BME280;5006;41.828;23.478;2022-08-01T04:15:38;90245.28;;;19.14;57.24
9935;BME280;5006;41.828;23.478;2022-08-01T04:16:44;90253.00;;;19.50;56.97
9935;BME280;5006;41.828;23.478;2022-08-01T04:17:49;90256.91;;;19.27;57.38
9935;BME280;5006;41.828;23.478;2022-08-01T04:18:54;90249.66;;;19.24;58.04
9935;BME280;5006;41.828;23.478;2022-08-01T04:20:01;90256.28;;;19.11;58.89
9935;BME280;5006;41.828;23.478;2022-08-01T04:21:08;90253.19;;;18.87;59.96
9935;BME280;5006;41.828;23.478;2022-08-01T04:22:15;90245.97;;;19.06;59.94
9935;BME280;5006;41.828;23.478;2022-08-01T04:23:22;90262.94;;;19.44;59.16
9935;BME280;5006;41.828;23.478;2022-08-01T04:24:31;90254.06;;;19.31;61.36
9935;BME280;5006;41.828;23.478;2022-08-01T04:25:38;90254.47;;;19.42;61.83
9935;BME280;5006;41.828;23.478;2022-08-01T04:26:47;90262.97;;;19.31;61.38
9935;BME280;5006;41.828;23.478;2022-08-01T04:27:54;90249.94;;;19.14;62.18
9935;BME280;5006;41.828;23.478;2022-08-01T04:29:04;90256.13;;;19.27;62.88
9935;BME280;5006;41.828;23.478;2022-08-01T04:30:12;90258.69;;;18.96;63.74
9935;BME280;5006;41.828;23.478;2022-08-01T04:31:18;90263.50;;;18.92;63.48
9935;BME280;5006;41.828;23.478;2022-08-01T04:32:25;90258.94;;;19.36;62.61
9935;BME280;5006;41.828;23.478;2022-08-01T04:33:33;90260.97;;;18.98;63.57
9935;BME280;5006;41.828;23.478;2022-08-01T04:34:41;90273.25;;;19.49;62.61
9935;BME280;5006;41.828;23.478;2022-08-01T04:35:50;90270.00;;;19.75;63.92
9935;BME280;5006;41.828;23.478;2022-08-01T04:36:59;90266.69;;;19.59;64.57
9935;BME280;5006;41.828;23.478;2022-08-01T04:38:06;90262.34;;;19.15;66.63
9935;BME280;5006;41.828;23.478;2022-08-01T04:39:12;90270.94;;;19.60;66.45
9935;BME280;5006;41.828;23.478;2022-08-01T04:40:19;90261.13;;;19.83;66.36
9935;BME280;5006;41.828;23.478;2022-08-01T04:41:26;90264.69;;;20.14;65.19
9935;BME280;5006;41.828;23.478;2022-08-01T04:42:32;90265.22;;;19.67;67.96
9935;BME280;5006;41.828;23.478;2022-08-01T04:43:38;90267.22;;;19.66;67.99
9935;BME280;5006;41.828;23.478;2022-08-01T04:44:43;90270.00;;;20.18;66.65
9935;BME280;5006;41.828;23.478;2022-08-01T04:45:51;90263.66;;;20.21;65.61
9935;BME280;5006;41.828;23.478;2022-08-01T04:46:56;90256.94;;;20.34;64.90
9935;BME280;5006;41.828;23.478;2022-08-01T04:48:05;90260.00;;;20.15;65.57
9935;BME280;5006;41.828;23.478;2022-08-01T04:49:12;90253.28;;;20.07;64.35
9935;BME280;5006;41.828;23.478;2022-08-01T04:50:17;90258.59;;;19.89;64.64
9935;BME280;5006;41.828;23.478;2022-08-01T04:51:26;90258.78;;;19.73;66.42
9935;BME280;5006;41.828;23.478;2022-08-01T04:52:35;90264.91;;;19.65;63.19
9935;BME280;5006;41.828;23.478;2022-08-01T04:53:41;90251.56;;;20.00;62.21
9935;BME280;5006;41.828;23.478;2022-08-01T04:54:47;90253.31;;;20.37;63.11
9935;BME280;5006;41.828;23.478;2022-08-01T04:55:53;90256.44;;;20.57;62.43
9935;BME280;5006;41.828;23.478;2022-08-01T04:56:58;90254.59;;;20.24;61.75
9935;BME280;5006;41.828;23.478;2022-08-01T04:58:04;90264.84;;;20.20;60.89
9935;BME280;5006;41.828;23.478;2022-08-01T04:59:09;90251.56;;;20.52;59.55
9935;BME280;5006;41.828;23.478;2022-08-01T05:00:32;90252.06;;;20.69;59.81
9935;BME280;5006;41.828;23.478;2022-08-01T05:01:38;90252.00;;;20.90;59.18
9935;BME280;5006;41.828;23.478;2022-08-01T05:02:42;90265.03;;;20.56;58.32
9935;BME280;5006;41.828;23.478;2022-08-01T05:03:48;90255.88;;;20.71;58.59
9935;BME280;5006;41.828;23.478;2022-08-01T05:04:53;90249.91;;;20.94;58.60
9935;BME280;5006;41.828;23.478;2022-08-01T05:06:00;90261.53;;;20.55;59.18
9935;BME280;5006;41.828;23.478;2022-08-01T05:07:05;90255.50;;;20.91;58.66
9935;BME280;5006;41.828;23.478;2022-08-01T05:08:12;90250.28;;;21.41;58.10
9935;BME280;5006;41.828;23.478;2022-08-01T05:09:17;90253.00;;;21.14;57.38
9935;BME280;5006;41.828;23.478;2022-08-01T05:10:23;90252.56;;;21.34;57.63
9935;BME280;5006;41.828;23.478;2022-08-01T05:11:30;90260.28;;;21.26;57.85
9935;BME280;5006;41.828;23.478;2022-08-01T05:12:35;90257.28;;;21.51;57.75
9935;BME280;5006;41.828;23.478;2022-08-01T05:13:40;90264.72;;;21.42;57.13
9935;BME280;5006;41.828;23.478;2022-08-01T05:14:45;90264.06;;;20.80;58.50
9935;BME280;5006;41.828;23.478;2022-08-01T05:15:50;90250.03;;;21.66;57.72
9935;BME280;5006;41.828;23.478;2022-08-01T05:16:57;90245.88;;;22.24;56.69
9935;BME280;5006;41.828;23.478;2022-08-01T05:18:02;90246.69;;;21.80;57.26
9935;BME280;5006;41.828;23.478;2022-08-01T05:19:08;90252.91;;;21.72;57.84
9935;BME280;5006;41.828;23.478;2022-08-01T05:20:13;90258.94;;;21.31;58.96
9935;BME280;5006;41.828;23.478;2022-08-01T05:21:19;90257.47;;;21.93;58.47
9935;BME280;5006;41.828;23.478;2022-08-01T05:22:24;90260.44;;;21.14;59.95
9935;BME280;5006;41.828;23.478;2022-08-01T05:23:31;90263.91;;;21.23;59.66
9935;BME280;5006;41.828;23.478;2022-08-01T05:24:38;90266.72;;;21.86;58.69
9935;BME280;5006;41.828;23.478;2022-08-01T05:25:43;90264.47;;;21.00;59.73
9935;BME280;5006;41.828;23.478;2022-08-01T05:26:49;90259.69;;;20.83;60.68
9935;BME280;5006;41.828;23.478;2022-08-01T05:27:54;90264.03;;;21.02;60.07
9935;BME280;5006;41.828;23.478;2022-08-01T05:29:00;90261.22;;;20.44;61.56
9935;BME280;5006;41.828;23.478;2022-08-01T05:30:06;90262.41;;;21.40;60.19
9935;BME280;5006;41.828;23.478;2022-08-01T05:31:13;90279.53;;;21.32;59.77
9935;BME280;5006;41.828;23.478;2022-08-01T05:32:18;90270.59;;;21.58;59.41
9935;BME280;5006;41.828;23.478;2022-08-01T05:33:25;90273.03;;;21.38;59.11
9935;BME280;5006;41.828;23.478;2022-08-01T05:34:30;90254.53;;;21.42;59.32
9935;BME280;5006;41.828;23.478;2022-08-01T05:35:36;90259.41;;;22.01;58.71
9935;BME280;5006;41.828;23.478;2022-08-01T05:36:40;90256.25;;;21.85;58.30
9935;BME280;5006;41.828;23.478;2022-08-01T05:37:46;90272.47;;;21.61;59.42
9935;BME280;5006;41.828;23.478;2022-08-01T05:38:53;90265.66;;;21.93;58.60
9935;BME280;5006;41.828;23.478;2022-08-01T05:39:59;90265.44;;;22.41;58.17
9935;BME280;5006;41.828;23.478;2022-08-01T05:41:04;90257.97;;;22.50;57.30
9935;BME280;5006;41.828;23.478;2022-08-01T05:42:11;90257.59;;;22.75;57.66
9935;BME280;5006;41.828;23.478;2022-08-01T05:43:17;90257.38;;;22.46;57.71
9935;BME280;5006;41.828;23.478;2022-08-01T05:44:22;90258.75;;;22.51;57.90
9935;BME280;5006;41.828;23.478;2022-08-01T05:45:28;90261.91;;;23.00;57.11
9935;BME280;5006;41.828;23.478;2022-08-01T05:46:34;90268.38;;;23.44;56.05
9935;BME280;5006;41.828;23.478;2022-08-01T05:47:39;90266.84;;;22.78;55.93
9935;BME280;5006;41.828;23.478;2022-08-01T05:48:45;90272.25;;;23.28;54.23
9935;BME280;5006;41.828;23.478;2022-08-01T05:49:50;90274.25;;;23.98;53.71
9935;BME280;5006;41.828;23.478;2022-08-01T05:50:56;90264.00;;;23.05;55.01
9935;BME280;5006;41.828;23.478;2022-08-01T05:52:02;90261.44;;;23.57;52.94
9935;BME280;5006;41.828;23.478;2022-08-01T05:53:09;90263.59;;;23.30;51.98
9935;BME280;5006;41.828;23.478;2022-08-01T05:54:15;90266.03;;;22.95;52.56
9935;BME280;5006;41.828;23.478;2022-08-01T05:55:21;90261.13;;;22.67;52.07
9935;BME280;5006;41.828;23.478;2022-08-01T05:56:26;90255.56;;;22.85;51.61
9935;BME280;5006;41.828;23.478;2022-08-01T05:57:32;90250.75;;;23.12;51.75
9935;BME280;5006;41.828;23.478;2022-08-01T05:58:37;90274.41;;;22.83;52.14
9935;BME280;5006;41.828;23.478;2022-08-01T05:59:42;90268.81;;;23.10;50.91
9935;BME280;5006;41.828;23.478;2022-08-01T06:00:47;90257.75;;;23.84;50.36